Time;durP1;ratioP1;P1;durP2;ratioP2;P2;SDS_P1;SDS_P2;PMS_P1;PMS_P2;Temp;Humidity;BMP_temperature;BMP_pressure;BME280_temperature;BME280_humidity;BME280_pressure;Samples;Min_cycle;Max_cycle;Signal;HPM_P1;HPM_P2
2020/12/13 00:00:45;;;;;;;33.70;17.30;;;;;;;-0.86;77.73;99366.50;1673690;84;20521;-39
2020/12/13 00:03:14;;;;;;;37.23;17.57;;;;;;;-0.91;77.94;99363.89;1649996;85;21181;-38
2020/12/13 00:05:43;;;;;;;36.48;18.52;;;;;;;-0.89;77.97;99365.20;1684862;84;21217;-39
2020/12/13 00:08:11;;;;;;;33.42;17.48;;;;;;;-0.89;78.12;99365.74;1676965;83;21390;-39
2020/12/13 00:10:39;;;;;;;35.60;18.05;;;;;;;-0.85;78.09;99364.62;1713044;82;21127;-38
2020/12/13 00:13:11;;;;;;;39.95;18.75;;;;;;;-0.87;78.14;99368.89;1725803;82;21098;-38
2020/12/13 00:15:39;;;;;;;37.65;19.15;;;;;;;-0.83;78.25;99363.28;1732962;82;21142;-38
2020/12/13 00:18:07;;;;;;;34.00;17.60;;;;;;;-0.78;78.20;99353.11;1734681;82;21147;-39
2020/12/13 00:20:35;;;;;;;36.35;18.02;;;;;;;-0.76;78.16;99357.06;1718237;82;21434;-39
2020/12/13 00:23:04;;;;;;;38.75;18.57;;;;;;;-0.75;78.22;99355.20;1711006;82;21124;-39
2020/12/13 00:25:32;;;;;;;41.48;18.75;;;;;;;-0.80;78.32;99356.59;1730278;82;21159;-39
2020/12/13 00:28:00;;;;;;;43.17;20.32;;;;;;;-0.80;78.37;99353.39;1731072;81;21175;-39
2020/12/13 00:30:28;;;;;;;37.03;18.17;;;;;;;-0.79;78.44;99348.86;1724947;82;21203;-38
2020/12/13 00:32:57;;;;;;;38.60;20.10;;;;;;;-0.80;78.53;99348.06;1720013;82;21427;-39
2020/12/13 00:35:25;;;;;;;37.58;19.35;;;;;;;-0.81;78.62;99347.02;1725317;82;21167;-38
2020/12/13 00:37:54;;;;;;;38.40;19.00;;;;;;;-0.87;78.75;99346.27;1723201;82;21142;-39
2020/12/13 00:40:22;;;;;;;43.90;19.92;;;;;;;-0.89;78.82;99346.58;1688460;84;21174;-39
2020/12/13 00:42:51;;;;;;;38.53;19.52;;;;;;;-0.93;79.03;99342.11;1705506;82;21158;-39
2020/12/13 00:45:23;;;;;;;37.35;18.60;;;;;;;-0.98;79.27;99337.64;1728543;82;23522;-39
2020/12/13 00:47:52;;;;;;;31.45;18.45;;;;;;;-0.95;79.15;99341.05;1674446;84;21146;-40
2020/12/13 00:50:20;;;;;;;35.70;17.50;;;;;;;-0.97;79.38;99331.78;1697883;84;21170;-39
2020/12/13 00:52:49;;;;;;;34.85;19.10;;;;;;;-0.92;79.34;99336.48;1691199;84;21183;-40
2020/12/13 00:55:17;;;;;;;36.85;18.42;;;;;;;-0.94;79.41;99332.00;1681798;84;21445;-40
2020/12/13 00:57:45;;;;;;;38.33;19.50;;;;;;;-0.94;79.43;99332.54;1696169;84;21381;-40
2020/12/13 01:00:13;;;;;;;35.73;19.98;;;;;;;-0.93;79.42;99332.80;1645494;85;21162;-40
2020/12/13 01:02:42;;;;;;;40.30;20.10;;;;;;;-0.93;79.64;99331.47;1673407;84;21366;-39
2020/12/13 01:05:10;;;;;;;40.38;20.10;;;;;;;-0.90;79.59;99332.22;1677166;84;21375;-40
2020/12/13 01:07:39;;;;;;;39.50;19.73;;;;;;;-0.95;79.83;99328.28;1675081;84;21602;-40
2020/12/13 01:10:07;;;;;;;42.27;20.52;;;;;;;-0.93;79.72;99338.12;1676162;83;23614;-40
2020/12/13 01:12:35;;;;;;;38.35;20.05;;;;;;;-0.92;79.80;99339.14;1671778;84;21566;-40
2020/12/13 01:15:06;;;;;;;39.73;19.63;;;;;;;-0.89;79.72;99335.94;1667615;84;21175;-39
2020/12/13 01:17:34;;;;;;;40.12;20.10;;;;;;;-0.84;79.56;99340.41;1685035;84;21195;-39
2020/12/13 01:20:04;;;;;;;35.80;19.95;;;;;;;-0.85;79.55;99332.69;1693732;84;21135;-40
2020/12/13 01:22:36;;;;;;;;;;;;;;;-0.82;79.54;99326.25;1675197;84;21175;-40
2020/12/13 01:25:06;;;;;;;42.70;20.90;;;;;;;-0.82;79.52;99325.48;1667797;84;20307;-40
2020/12/13 01:27:35;;;;;;;38.65;21.17;;;;;;;-0.91;79.79;99319.98;1667539;84;21158;-40
2020/12/13 01:30:07;;;;;;;43.20;20.92;;;;;;;-0.92;79.86;99320.52;1667757;84;21235;-40
2020/12/13 01:32:42;;;;;;;35.78;19.37;;;;;;;-0.89;79.81;99319.17;1688015;84;21206;-40
2020/12/13 01:35:11;;;;;;;45.73;19.95;;;;;;;-0.86;79.61;99309.27;1713972;82;21346;-40
2020/12/13 01:37:39;;;;;;;24.77;15.20;;;;;;;-0.92;79.86;99309.11;1720977;82;20997;-40
2020/12/13 01:40:08;;;;;;;36.77;19.65;;;;;;;-0.87;79.78;99313.58;1718371;82;21210;-40
2020/12/13 01:42:43;;;;;;;40.80;19.40;;;;;;;-0.83;79.75;99303.94;1716095;82;21589;-40
2020/12/13 01:45:18;;;;;;;35.63;18.57;;;;;;;-0.82;79.69;99310.28;1713466;82;21199;-40
2020/12/13 01:47:44;;;;;;;36.33;20.05;;;;;;;-0.79;79.70;99312.39;1741182;82;21372;-40
2020/12/13 01:50:27;;;;;;;38.30;20.15;;;;;;;-0.78;79.82;99314.52;1731096;82;21629;-39
2020/12/13 01:52:49;;;;;;;37.03;18.15;;;;;;;-0.76;79.79;99295.84;1734032;82;21147;-40
2020/12/13 01:55:18;;;;;;;41.13;18.27;;;;;;;-0.73;79.62;99296.62;1714840;82;21190;-39
2020/12/13 01:57:49;;;;;;;35.45;18.62;;;;;;;-0.79;79.79;99296.95;1661702;83;21547;-40
2020/12/13 02:00:18;;;;;;;32.28;18.17;;;;;;;-0.79;79.83;99287.11;1737874;82;21377;-40
2020/12/13 02:03:00;;;;;;;31.80;18.70;;;;;;;-0.81;80.00;99277.28;1721679;82;21147;-39
2020/12/13 02:05:29;;;;;;;41.55;21.07;;;;;;;-0.81;80.05;99291.91;1736303;82;21103;-40
2020/12/13 02:07:57;;;;;;;34.10;18.95;;;;;;;-0.77;80.03;99306.23;1740318;82;21167;-40
2020/12/13 02:10:26;;;;;;;37.08;19.57;;;;;;;-0.76;80.07;99313.14;1744369;81;21103;-40
2020/12/13 02:12:54;;;;;;;35.88;19.57;;;;;;;-0.73;80.12;99316.58;1745117;82;21257;-40
2020/12/13 02:15:22;;;;;;;33.95;18.48;;;;;;;-1.08;80.19;99253.16;1746797;82;21044;-39
2020/12/13 02:17:57;;;;;;;42.45;19.32;;;;;;;-0.68;80.09;99311.20;1735944;82;21190;-40
2020/12/13 02:20:26;;;;;;;41.85;20.40;;;;;;;-0.61;79.83;99312.15;1735971;80;21025;-40
2020/12/13 02:22:55;;;;;;;40.92;20.37;;;;;;;-0.60;79.75;99310.55;1724762;82;21166;-40
2020/12/13 02:25:23;;;;;;;43.05;19.05;;;;;;;-0.61;79.69;99307.63;1743682;82;21130;-40
2020/12/13 02:27:53;;;;;;;;;;;;;;;-0.67;79.87;99307.43;1747692;82;21174;-40
2020/12/13 02:30:21;;;;;;;36.08;20.27;;;;;;;-0.67;79.91;99312.75;1719468;82;20279;-40
2020/12/13 02:32:50;;;;;;;34.33;17.27;;;;;;;-0.70;80.13;99316.00;1725742;82;21206;-40
2020/12/13 02:35:18;;;;;;;36.68;19.17;;;;;;;-0.65;80.06;99317.27;1745832;82;21178;-40
2020/12/13 02:37:46;;;;;;;40.90;21.57;;;;;;;-0.58;79.88;99318.25;1741516;82;21375;-40
2020/12/13 02:40:15;;;;;;;37.35;20.10;;;;;;;-0.57;79.92;99316.61;1721606;82;21052;-40
2020/12/13 02:42:43;;;;;;;43.42;22.95;;;;;;;-0.55;79.88;99314.47;1720383;82;21146;-40
2020/12/13 02:45:12;;;;;;;42.50;20.88;;;;;;;-0.52;79.81;99311.22;1718924;83;21158;-40
2020/12/13 02:47:40;;;;;;;37.20;21.00;;;;;;;-0.51;79.83;99312.81;1724943;82;21198;-40
2020/12/13 02:50:08;;;;;;;36.45;21.27;;;;;;;-0.53;79.74;99296.86;1748697;82;21202;-39
2020/12/13 02:52:37;;;;;;;43.65;22.22;;;;;;;-0.41;79.75;99303.09;1739753;82;21178;-40
2020/12/13 02:55:05;;;;;;;37.78;21.23;;;;;;;-0.41;79.77;99299.89;1733211;82;20996;-40
2020/12/13 02:57:34;;;;;;;38.28;21.00;;;;;;;-0.40;79.75;99296.69;1731296;82;21150;-39
2020/12/13 03:00:03;;;;;;;35.83;20.85;;;;;;;-0.31;79.60;99298.41;1745233;82;21163;-40
2020/12/13 03:02:31;;;;;;;34.00;18.87;;;;;;;-0.31;79.64;99296.28;1720403;82;21243;-40
2020/12/13 03:04:59;;;;;;;32.63;17.77;;;;;;;-0.29;79.65;99297.56;1745218;82;21012;-40
2020/12/13 03:07:28;;;;;;;35.28;20.25;;;;;;;-0.24;79.57;99300.72;1740400;82;21134;-40
2020/12/13 03:09:56;;;;;;;33.00;19.05;;;;;;;-0.25;79.74;99293.80;1714936;82;21171;-40
2020/12/13 03:12:27;;;;;;;30.95;18.40;;;;;;;-0.30;79.81;99283.22;1712273;82;21163;-40
2020/12/13 03:14:56;;;;;;;32.05;19.32;;;;;;;-0.17;79.89;99300.59;1725263;82;23507;-40
2020/12/13 03:17:24;;;;;;;30.90;19.55;;;;;;;-0.13;79.82;99314.91;1719734;82;21170;-40
2020/12/13 03:19:53;;;;;;;28.20;17.60;;;;;;;-0.12;79.90;99319.70;1714232;82;21535;-40
2020/12/13 03:22:22;;;;;;;31.75;18.52;;;;;;;-0.05;79.78;99316.14;1713007;82;21104;-40
2020/12/13 03:24:50;;;;;;;32.23;19.35;;;;;;;0.02;79.55;99317.88;1709025;82;21179;-40
2020/12/13 03:27:24;;;;;;;28.52;17.30;;;;;;;0.00;79.65;99304.08;1672196;84;21492;-40
2020/12/13 03:29:49;;;;;;;28.17;16.77;;;;;;;-0.02;79.69;99303.56;1666298;86;21207;-40
2020/12/13 03:32:18;;;;;;;26.12;16.15;;;;;;;0.00;79.73;99288.08;1678614;84;21238;-40
2020/12/13 03:34:47;;;;;;;28.90;17.57;;;;;;;0.04;79.63;99289.08;1720204;82;21563;-40
2020/12/13 03:37:17;;;;;;;23.98;14.75;;;;;;;0.02;79.84;99285.90;1688543;84;21209;-40
2020/12/13 03:39:46;;;;;;;24.98;15.63;;;;;;;0.00;79.98;99284.84;1688422;84;21217;-40
2020/12/13 03:42:14;;;;;;;27.93;16.45;;;;;;;0.08;79.94;99285.28;1692126;84;21183;-40
2020/12/13 03:44:43;;;;;;;22.77;14.23;;;;;;;0.05;80.15;99287.20;1675359;84;21159;-40
2020/12/13 03:47:11;;;;;;;21.00;14.07;;;;;;;-0.25;80.08;99233.33;1671924;84;21194;-40
2020/12/13 03:49:40;;;;;;;20.35;14.43;;;;;;;0.12;80.16;99297.73;1694685;84;21170;-40
2020/12/13 03:52:08;;;;;;;21.85;14.05;;;;;;;0.16;80.06;99298.72;1690533;84;22294;-40
2020/12/13 03:54:37;;;;;;;20.62;13.88;;;;;;;0.15;80.04;99295.80;1689944;84;21198;-40
2020/12/13 03:57:05;;;;;;;20.48;13.75;;;;;;;0.16;80.13;99298.72;1674319;84;21009;-40
2020/12/13 03:59:34;;;;;;;19.92;13.65;;;;;;;0.25;79.90;99303.63;1693178;84;21127;-40
2020/12/13 04:02:04;;;;;;;21.97;12.70;;;;;;;0.24;79.91;99299.37;1671896;84;21162;-39
2020/12/13 04:04:32;;;;;;;19.98;12.82;;;;;;;0.29;79.94;99300.63;1689601;84;21221;-40
2020/12/13 04:07:01;;;;;;;19.45;12.98;;;;;;;0.33;79.79;99302.98;1685622;84;21167;-40
2020/12/13 04:09:29;;;;;;;23.40;14.58;;;;;;;0.35;79.79;99304.80;1688757;84;21146;-40
2020/12/13 04:11:58;;;;;;;20.12;13.48;;;;;;;0.29;79.87;99308.63;1690747;84;21222;-40
2020/12/13 04:14:27;;;;;;;22.80;14.43;;;;;;;0.29;79.97;99307.86;1687629;84;21217;-40
2020/12/13 04:16:56;;;;;;;22.30;14.73;;;;;;;0.39;79.74;99310.32;1673267;84;21432;-40
2020/12/13 04:19:24;;;;;;;22.37;14.20;;;;;;;0.38;79.82;99314.89;1694688;84;21182;-40
2020/12/13 04:21:53;;;;;;;21.30;12.90;;;;;;;0.36;79.91;99322.37;1693613;84;21591;-40
2020/12/13 04:24:22;;;;;;;19.23;13.68;;;;;;;0.39;79.90;99319.12;1673726;84;21174;-40
2020/12/13 04:26:51;;;;;;;26.90;14.55;;;;;;;0.49;79.69;99322.69;1667467;84;21577;-40
2020/12/13 04:29:19;;;;;;;22.60;13.85;;;;;;;0.43;79.84;99318.80;1705920;82;21163;-40
2020/12/13 04:31:47;;;;;;;25.48;14.40;;;;;;;0.39;79.84;99315.11;1716019;82;21567;-40
2020/12/13 04:34:17;;;;;;;24.90;14.93;;;;;;;0.41;79.92;99312.96;1724591;82;21044;-40
2020/12/13 04:36:47;;;;;;;24.93;15.90;;;;;;;0.47;79.83;99309.67;1710475;82;21179;-40
2020/12/13 04:39:16;;;;;;;20.95;13.35;;;;;;;0.44;79.97;99304.36;1707235;82;21135;-40
2020/12/13 04:41:44;;;;;;;23.75;14.07;;;;;;;0.46;80.03;99303.28;1706684;82;21421;-40
2020/12/13 04:44:12;;;;;;;20.60;14.00;;;;;;;0.50;80.06;99300.27;1734536;82;21150;-40
2020/12/13 04:46:41;;;;;;;19.82;14.10;;;;;;;0.53;79.93;99297.83;1723562;82;21632;-40
2020/12/13 04:49:09;;;;;;;24.07;14.50;;;;;;;0.53;80.10;99301.03;1710361;82;21131;-40
2020/12/13 04:51:38;;;;;;;22.27;14.35;;;;;;;0.53;80.14;99295.70;1711023;82;21159;-40
2020/12/13 04:54:06;;;;;;;24.82;15.75;;;;;;;0.59;80.07;99299.83;1726835;82;21378;-40
2020/12/13 04:56:36;;;;;;;27.48;16.20;;;;;;;0.59;80.23;99303.83;1690575;84;21202;-40
2020/12/13 04:59:05;;;;;;;21.37;13.65;;;;;;;0.57;80.34;99311.36;1699587;84;21210;-40
2020/12/13 05:01:33;;;;;;;22.03;13.80;;;;;;;0.62;80.32;99309.94;1685643;84;21554;-40
2020/12/13 05:04:02;;;;;;;22.73;14.45;;;;;;;0.68;80.14;99311.40;1685522;84;21159;-40
2020/12/13 05:06:31;;;;;;;19.25;13.38;;;;;;;0.67;80.20;99311.17;1718196;82;21287;-40
2020/12/13 05:08:59;;;;;;;17.27;10.63;;;;;;;0.68;80.27;99306.06;1722384;82;21207;-40
2020/12/13 05:11:28;;;;;;;20.25;12.78;;;;;;;0.74;80.17;99308.35;1743803;81;21052;-40
2020/12/13 05:13:57;;;;;;;20.02;12.90;;;;;;;0.78;80.15;99308.55;1747578;82;21582;-40
2020/12/13 05:16:25;;;;;;;16.30;10.45;;;;;;;0.77;80.21;99306.98;1737966;82;21146;-40
2020/12/13 05:18:54;;;;;;;16.35;10.98;;;;;;;0.79;80.24;99307.46;1730112;82;21688;-40
2020/12/13 05:21:25;;;;;;;17.07;11.80;;;;;;;0.85;80.15;99308.41;1748340;82;21132;-40
2020/12/13 05:23:54;;;;;;;18.48;12.75;;;;;;;0.87;80.15;99310.22;1724002;82;21174;-40
2020/12/13 05:26:22;;;;;;;15.98;10.95;;;;;;;0.87;80.22;99307.55;1746075;82;21191;-40
2020/12/13 05:28:52;;;;;;;17.80;11.78;;;;;;;0.87;80.33;99310.80;1739424;82;21163;-40
2020/12/13 05:31:24;;;;;;;17.02;12.53;;;;;;;0.95;80.09;99308.76;1745707;82;22269;-40
2020/12/13 05:33:56;;;;;;;17.07;11.88;;;;;;;0.94;80.15;99307.17;1745944;82;21501;-40
2020/12/13 05:36:26;;;;;;;20.32;11.95;;;;;;;0.92;80.28;99312.58;1748741;82;21028;-40
2020/12/13 05:38:59;;;;;;;20.02;13.95;;;;;;;0.94;80.34;99308.50;1736919;82;21162;-40
2020/12/13 05:41:31;;;;;;;20.72;12.73;;;;;;;0.97;80.39;99309.23;1748839;82;21481;-40
2020/12/13 05:47:00;;;;;;;22.95;13.75;;;;;;;1.04;80.53;99305.64;1814290;77;24173;-39
2020/12/13 05:51:50;;;;;;;20.70;13.10;;;;;;;1.05;80.44;99301.89;1740890;81;21422;-39
2020/12/13 05:54:21;;;;;;;21.45;13.78;;;;;;;1.07;80.52;99304.23;1747803;80;21039;-39
2020/12/13 05:57:00;;;;;;;22.93;13.88;;;;;;;1.13;80.47;99299.05;1749223;82;21632;-39
2020/12/13 05:59:30;;;;;;;;;;;;;;;1.14;80.38;99305.44;1750091;80;21052;-39
2020/12/13 06:02:01;;;;;;;25.68;14.93;;;;;;;1.14;80.52;99304.64;1771609;80;20131;-39
2020/12/13 06:04:32;;;;;;;26.27;14.60;;;;;;;1.08;80.73;99301.28;1776917;80;21425;-39
2020/12/13 06:07:05;;;;;;;24.75;15.38;;;;;;;1.16;80.57;99307.24;1749725;80;21609;-39
2020/12/13 06:09:38;;;;;;;25.68;15.53;;;;;;;1.19;80.51;99305.33;1758206;80;21012;-39
2020/12/13 06:12:10;;;;;;;22.07;14.78;;;;;;;1.17;80.51;99306.16;1770330;80;22600;-39
2020/12/13 06:17:19;;;;;;;26.70;17.50;;;;;;;1.18;80.28;99302.41;1832342;77;22724;-39
2020/12/13 06:19:48;;;;;;;27.53;14.97;;;;;;;1.18;80.28;99302.41;1736984;79;21130;-39
2020/12/13 06:22:16;;;;;;;23.07;15.80;;;;;;;1.23;80.32;99302.30;1808818;78;21205;-39
2020/12/13 06:24:46;;;;;;;28.80;17.12;;;;;;;1.27;80.18;99304.61;1788962;79;21051;-39
2020/12/13 06:27:15;;;;;;;26.50;16.77;;;;;;;1.26;80.29;99308.37;1778444;78;21594;-39
2020/12/13 06:29:43;;;;;;;24.47;15.80;;;;;;;1.24;80.38;99304.44;1806324;79;20991;-39
2020/12/13 06:32:13;;;;;;;27.52;17.98;;;;;;;1.26;80.31;99304.36;1773221;79;21008;-39
2020/12/13 06:34:46;;;;;;;31.17;19.52;;;;;;;1.32;80.26;99314.40;1814024;78;21375;-39
2020/12/13 06:37:15;;;;;;;26.77;17.57;;;;;;;1.31;80.26;99311.48;1781028;79;21617;-39
2020/12/13 06:39:43;;;;;;;25.80;16.70;;;;;;;1.31;80.24;99313.61;1767735;80;20961;-39
2020/12/13 06:42:13;;;;;;;32.20;18.23;;;;;;;1.36;80.10;99318.59;1762401;78;21646;-39
2020/12/13 06:44:43;;;;;;;;;;;;;;;1.36;80.04;99321.27;1754115;80;21142;-39
2020/12/13 06:47:23;;;;;;;25.32;16.10;;;;;;;1.34;80.13;99315.45;1756695;79;21379;-39
2020/12/13 06:49:51;;;;;;;27.07;17.02;;;;;;;1.27;80.36;99318.52;1720943;82;21186;-39
2020/12/13 06:52:33;;;;;;;22.35;15.23;;;;;;;1.33;80.23;99313.31;1747691;82;21130;-39
2020/12/13 06:55:07;;;;;;;24.90;15.85;;;;;;;1.32;80.20;99313.06;1756376;80;21154;-39
2020/12/13 06:57:35;;;;;;;23.80;15.38;;;;;;;1.29;80.28;99315.80;1767644;80;21178;-39
2020/12/13 07:00:08;;;;;;;24.77;16.35;;;;;;;1.31;80.24;99315.48;1780261;80;22381;-39
2020/12/13 07:02:54;;;;;;;25.70;16.60;;;;;;;1.35;80.10;99317.83;1766191;80;21147;-39
2020/12/13 07:05:46;;;;;;;26.12;15.30;;;;;;;1.29;80.24;99308.33;1765799;80;21595;-39
2020/12/13 07:08:22;;;;;;;25.45;16.35;;;;;;;1.27;80.32;99305.95;1754459;80;21205;-39
2020/12/13 07:13:33;;;;;;;27.77;16.62;;;;;;;1.30;80.38;99302.70;1835850;78;22836;-39
2020/12/13 07:16:21;;;;;;;26.82;17.30;;;;;;;1.28;80.40;99306.20;1808259;79;20972;-39
2020/12/13 07:18:45;;;;;;;31.17;19.97;;;;;;;1.36;80.20;99302.56;1801622;79;21355;-39
2020/12/13 07:21:15;;;;;;;29.70;17.52;;;;;;;1.26;80.48;99304.36;1795767;79;20971;-39
2020/12/13 07:23:43;;;;;;;29.67;18.80;;;;;;;1.29;80.42;99304.33;1779224;79;20996;-39
2020/12/13 07:26:12;;;;;;;35.90;20.95;;;;;;;1.34;80.35;99313.57;1776562;79;20976;-39
2020/12/13 07:28:40;;;;;;;36.42;20.15;;;;;;;1.33;80.46;99316.53;1802885;79;20996;-39
2020/12/13 07:31:09;;;;;;;31.33;19.25;;;;;;;1.30;80.58;99317.39;1788818;79;21230;-39
2020/12/13 07:33:37;;;;;;;34.67;20.80;;;;;;;1.30;80.69;99320.06;1784145;79;21015;-39
2020/12/13 07:36:06;;;;;;;37.00;20.90;;;;;;;1.30;80.65;99322.73;1790407;79;21028;-39
2020/12/13 07:38:34;;;;;;;39.48;19.92;;;;;;;1.26;80.82;99324.94;1794460;79;21143;-39
2020/12/13 07:41:04;;;;;;;38.30;21.40;;;;;;;1.28;80.85;99328.91;1744739;80;21133;-39
2020/12/13 07:43:33;;;;;;;37.80;22.67;;;;;;;1.38;80.69;99325.77;1751419;79;21338;-39
2020/12/13 07:46:05;;;;;;;37.88;20.88;;;;;;;1.37;80.64;99324.19;1795201;79;21359;-39
2020/12/13 07:48:33;;;;;;;36.03;21.52;;;;;;;1.40;80.61;99324.40;1765647;79;21106;-39
2020/12/13 07:51:05;;;;;;;42.10;23.05;;;;;;;1.46;80.48;99333.06;1808064;79;21450;-39
2020/12/13 07:53:33;;;;;;;41.65;23.75;;;;;;;1.49;80.40;99340.50;1775439;77;21190;-39
2020/12/13 07:56:03;;;;;;;40.92;22.32;;;;;;;1.46;80.49;99336.53;1779730;79;21882;-39
2020/12/13 07:58:32;;;;;;;42.88;21.90;;;;;;;1.45;80.46;99334.98;1797489;79;21119;-39
2020/12/13 08:01:10;;;;;;;45.50;24.23;;;;;;;1.51;80.26;99350.33;1824876;78;21373;-39
2020/12/13 08:03:44;;;;;;;43.08;22.82;;;;;;;1.49;80.34;99351.98;1835141;78;21107;-40
2020/12/13 08:06:15;;;;;;;41.77;22.90;;;;;;;1.49;80.28;99352.52;1800127;79;21151;-40
2020/12/13 08:08:44;;;;;;;42.20;24.10;;;;;;;1.56;80.13;99348.88;1807929;79;21315;-39
2020/12/13 08:11:13;;;;;;;50.20;25.88;;;;;;;1.57;80.07;99348.59;1808145;79;21154;-39
2020/12/13 08:13:54;;;;;;;44.00;23.92;;;;;;;1.54;80.11;99352.42;1797856;79;21167;-39
2020/12/13 08:16:25;;;;;;;47.78;24.77;;;;;;;1.54;80.12;99352.42;1769285;79;21147;-39
2020/12/13 08:18:57;;;;;;;46.95;24.82;;;;;;;1.57;80.10;99355.81;1774345;79;21135;-39
2020/12/13 08:21:52;;;;;;;54.27;27.70;;;;;;;1.59;80.09;99354.98;1790960;79;21195;-41
2020/12/13 08:24:20;;;;;;;53.30;24.70;;;;;;;1.55;80.11;99344.66;1762940;79;21048;-39
2020/12/13 08:26:53;;;;;;;51.15;27.32;;;;;;;1.52;80.17;99343.90;1768519;79;21032;-39
2020/12/13 08:29:21;;;;;;;61.45;29.42;;;;;;;1.54;80.08;99341.19;1765767;79;21147;-39
2020/12/13 08:31:50;;;;;;;58.68;27.98;;;;;;;1.48;80.21;99336.24;1765224;79;21630;-40
2020/12/13 08:34:26;;;;;;;69.20;28.42;;;;;;;1.45;80.44;99338.19;1765556;79;21363;-39
2020/12/13 08:36:55;;;;;;;62.35;27.52;;;;;;;1.46;80.48;99335.73;1765267;79;21163;-39
2020/12/13 08:39:29;;;;;;;70.40;30.27;;;;;;;1.45;80.52;99334.19;1770756;79;21171;-39
2020/12/13 08:42:04;;;;;;;60.65;29.25;;;;;;;1.42;80.70;99336.09;1786791;78;21143;-39
2020/12/13 08:44:38;;;;;;;63.92;29.25;;;;;;;1.43;80.75;99333.68;1789564;79;21155;-39
2020/12/13 08:47:09;;;;;;;77.17;31.02;;;;;;;1.47;80.63;99330.65;1790654;79;21157;-39
2020/12/13 08:49:40;;;;;;;58.65;29.40;;;;;;;1.40;80.91;99336.96;1793997;80;21447;-39
2020/12/13 08:52:24;;;;;;;56.95;30.27;;;;;;;1.42;80.82;99342.77;1794457;80;21153;-39
2020/12/13 08:54:57;;;;;;;62.03;28.90;;;;;;;1.45;80.80;99339.52;1771980;79;21164;-39
2020/12/13 08:57:35;;;;;;;;;;;;;;;1.45;80.80;99341.66;1767466;79;21906;-40
2020/12/13 09:00:14;;;;;;;52.40;28.55;;;;;;;1.43;80.91;99337.69;1764613;79;21136;-39
2020/12/13 09:03:02;;;;;;;64.10;30.60;;;;;;;1.44;80.91;99328.59;1764686;79;21151;-39
2020/12/13 09:05:32;;;;;;;75.12;31.42;;;;;;;1.45;80.85;99326.17;1764575;79;21194;-39
2020/12/13 09:08:00;;;;;;;57.78;29.20;;;;;;;1.41;80.92;99327.83;1765208;79;21175;-40
2020/12/13 09:10:37;;;;;;;62.50;30.08;;;;;;;1.41;80.96;99328.63;1779176;79;21567;-39
2020/12/13 09:13:10;;;;;;;;;;;;;;;1.46;80.81;99337.87;1809028;79;21359;-39
2020/12/13 09:15:38;;;;;;;75.85;31.57;;;;;;;1.44;80.86;99324.58;1802904;79;20283;-40
2020/12/13 09:18:12;;;;;;;54.48;28.50;;;;;;;1.33;81.18;99325.33;1799759;79;21127;-40
2020/12/13 09:20:41;;;;;;;64.80;30.48;;;;;;;1.38;81.18;99319.09;1797670;79;21139;-40
2020/12/13 09:23:22;;;;;;;67.03;30.10;;;;;;;1.42;81.01;99312.85;1738719;82;21205;-40
2020/12/13 09:27:22;;;;;;;51.00;28.98;;;;;;;1.41;81.17;99311.27;1747766;79;22739;-39
2020/12/13 09:29:51;;;;;;;57.90;29.67;;;;;;;1.37;81.22;99310.29;1732416;82;21162;-40
2020/12/13 09:32:21;;;;;;;50.35;29.45;;;;;;;1.38;81.24;99304.41;1699841;82;21392;-39
2020/12/13 09:34:50;;;;;;;57.83;29.82;;;;;;;1.37;81.20;99303.61;1726909;82;21719;-40
2020/12/13 09:37:19;;;;;;;55.23;29.05;;;;;;;1.46;80.90;99306.36;1720496;82;21048;-39
2020/12/13 09:39:47;;;;;;;50.00;27.10;;;;;;;1.44;80.96;99301.88;1718615;82;21585;-39
2020/12/13 09:42:18;;;;;;;46.23;26.50;;;;;;;1.41;80.96;99294.44;1718763;83;21024;-39
2020/12/13 09:44:49;;;;;;;49.98;27.48;;;;;;;1.43;80.83;99293.06;1656158;83;21383;-40
2020/12/13 09:47:17;;;;;;;42.48;24.87;;;;;;;1.45;80.86;99290.11;1748171;82;23516;-39
2020/12/13 09:49:46;;;;;;;48.35;29.48;;;;;;;1.43;80.78;99288.27;1719088;82;21571;-39
2020/12/13 09:52:14;;;;;;;33.63;21.02;;;;;;;1.45;80.57;99290.11;1725268;82;21459;-39
2020/12/13 09:54:45;;;;;;;38.78;23.25;;;;;;;1.47;80.33;99278.56;1739945;82;21194;-39
2020/12/13 09:57:14;;;;;;;83.10;30.37;;;;;;;1.45;80.36;99283.43;1740081;82;21351;-39
2020/12/13 09:59:42;;;;;;;35.15;19.57;;;;;;;1.45;80.27;99287.44;1727409;82;21047;-39
2020/12/13 10:02:11;;;;;;;61.25;27.93;;;;;;;1.50;80.06;99288.09;1690813;82;21068;-39
2020/12/13 10:04:39;;;;;;;35.60;20.15;;;;;;;1.46;80.12;99278.30;1718682;83;21115;-39
2020/12/13 10:07:29;;;;;;;29.20;19.42;;;;;;;1.44;80.16;99281.84;1718697;83;21134;-39
2020/12/13 10:09:46;;;;;;;27.50;18.85;;;;;;;1.47;80.14;99289.24;1719499;82;21296;-39
2020/12/13 10:12:16;;;;;;;42.95;25.92;;;;;;;1.49;80.10;99277.72;1718696;82;21625;-39
2020/12/13 10:14:45;;;;;;;;;;;;;;;1.45;80.18;99282.09;1741662;82;21644;-40
2020/12/13 10:17:15;;;;;;;28.07;17.85;;;;;;;1.42;80.25;99282.13;1726308;82;20541;-40
2020/12/13 10:19:44;;;;;;;34.55;20.85;;;;;;;1.43;80.33;99281.59;1718903;83;21586;-39
2020/12/13 10:22:13;;;;;;;29.30;19.23;;;;;;;1.42;80.34;99274.66;1739153;82;21704;-39
2020/12/13 10:24:45;;;;;;;29.92;18.82;;;;;;;1.40;80.45;99279.53;1725394;82;21441;-39
2020/12/13 10:27:13;;;;;;;32.35;19.50;;;;;;;1.43;80.38;99270.36;1745201;82;21020;-39
2020/12/13 10:29:44;;;;;;;34.73;17.52;;;;;;;1.43;80.33;99271.70;1719532;83;21087;-39
2020/12/13 10:32:13;;;;;;;31.37;19.15;;;;;;;1.38;80.39;99271.02;1730681;82;21142;-39
2020/12/13 10:34:42;;;;;;;36.42;21.05;;;;;;;1.35;80.50;99274.30;1737140;82;22161;-40
2020/12/13 10:37:11;;;;;;;36.85;23.18;;;;;;;1.41;80.37;99279.21;1748961;82;21119;-39
2020/12/13 10:39:39;;;;;;;35.05;20.85;;;;;;;1.37;80.51;99273.44;1731837;82;21048;-40
2020/12/13 10:42:08;;;;;;;33.60;20.68;;;;;;;1.37;80.52;99276.11;1736315;82;21079;-39
2020/12/13 10:44:38;;;;;;;37.53;23.67;;;;;;;1.45;80.33;99280.22;1726355;82;21657;-40
2020/12/13 10:47:06;;;;;;;43.83;28.17;;;;;;;1.41;80.34;99274.41;1723121;82;21395;-39
2020/12/13 10:49:40;;;;;;;41.10;24.40;;;;;;;1.39;80.45;99277.41;1745065;82;21154;-39
2020/12/13 10:52:06;;;;;;;42.40;25.70;;;;;;;1.42;80.41;99266.65;1747787;82;21175;-39
2020/12/13 10:54:35;;;;;;;41.10;24.05;;;;;;;1.44;80.38;99271.16;1734545;82;21198;-39
2020/12/13 10:57:04;;;;;;;35.52;23.20;;;;;;;1.41;80.38;99276.54;1718821;83;21126;-39
2020/12/13 10:59:33;;;;;;;40.38;24.77;;;;;;;1.44;80.42;99275.16;1727985;82;21692;-39
2020/12/13 11:02:02;;;;;;;41.92;26.05;;;;;;;1.49;80.26;99263.83;1722455;82;21617;-39
2020/12/13 11:04:30;;;;;;;37.88;23.27;;;;;;;1.46;80.30;99268.95;1720997;82;21028;-39
2020/12/13 11:06:59;;;;;;;37.10;23.35;;;;;;;1.40;80.24;99254.16;1719040;82;21409;-39
2020/12/13 11:09:29;;;;;;;43.33;25.90;;;;;;;1.50;80.18;99261.37;1724875;82;21123;-39
2020/12/13 11:11:57;;;;;;;44.88;24.67;;;;;;;1.50;80.20;99268.63;1744312;82;21417;-39
2020/12/13 11:14:25;;;;;;;41.23;23.65;;;;;;;1.48;80.23;99262.78;1722045;82;21025;-39
2020/12/13 11:16:54;;;;;;;41.45;26.07;;;;;;;1.49;80.28;99265.70;1739633;82;21159;-39
2020/12/13 11:19:22;;;;;;;46.33;26.93;;;;;;;1.50;80.09;99258.70;1747831;82;21184;-39
2020/12/13 11:21:51;;;;;;;41.95;24.32;;;;;;;1.50;80.08;99269.96;1748723;82;21162;-39
2020/12/13 11:24:20;;;;;;;42.90;25.92;;;;;;;1.51;80.07;99266.97;1736992;82;21560;-39
2020/12/13 11:26:48;;;;;;;42.53;26.00;;;;;;;1.57;79.89;99268.98;1729668;82;21632;-39
2020/12/13 11:29:16;;;;;;;37.05;23.12;;;;;;;1.51;79.94;99274.19;1724567;82;21182;-40
2020/12/13 11:31:46;;;;;;;40.10;23.20;;;;;;;1.48;80.06;99274.80;1740349;82;21190;-40
2020/12/13 11:34:15;;;;;;;38.40;23.35;;;;;;;1.52;80.00;99264.55;1716992;82;21165;-39
2020/12/13 11:36:43;;;;;;;40.30;23.92;;;;;;;1.49;79.96;99266.50;1729519;82;21864;-40
2020/12/13 11:39:11;;;;;;;37.28;22.22;;;;;;;1.44;80.09;99276.50;1732285;82;21024;-40
2020/12/13 11:41:40;;;;;;;40.85;23.42;;;;;;;1.49;80.11;99272.38;1719140;82;20992;-39
2020/12/13 11:44:10;;;;;;;37.03;23.55;;;;;;;1.51;80.08;99270.18;1719522;82;21020;-39
2020/12/13 11:46:41;;;;;;;36.63;20.05;;;;;;;1.49;79.96;99274.52;1739449;82;21150;-40
2020/12/13 11:49:13;;;;;;;32.30;20.97;;;;;;;1.52;79.87;99265.88;1722096;82;21194;-40